sensor_id;sensor_type;location;lat;lon;timestamp;pressure;altitude;pressure_sealevel;temperature;humidity
60319;BME280;46163;52.306;5.634;2022-10-16T00:01:16;100763.16;;;18.31;63.94
60319;BME280;46163;52.306;5.634;2022-10-16T00:03:43;100770.44;;;18.31;63.90
60319;BME280;46163;52.306;5.634;2022-10-16T00:06:09;100775.81;;;18.31;63.81
60319;BME280;46163;52.306;5.634;2022-10-16T00:08:36;100759.63;;;18.26;64.01
60319;BME280;46163;52.306;5.634;2022-10-16T00:11:05;100771.75;;;18.28;63.76
60319;BME280;46163;52.306;5.634;2022-10-16T00:13:34;100769.06;;;18.28;63.93
60319;BME280;46163;52.306;5.634;2022-10-16T00:16:01;100772.84;;;18.27;63.82
60319;BME280;46163;52.306;5.634;2022-10-16T00:18:28;100770.41;;;18.26;63.79
60319;BME280;46163;52.306;5.634;2022-10-16T00:20:54;100780.34;;;18.25;64.08
60319;BME280;46163;52.306;5.634;2022-10-16T00:23:20;100780.03;;;18.22;63.74
60319;BME280;46163;52.306;5.634;2022-10-16T00:25:55;100784.13;;;18.24;63.83
60319;BME280;46163;52.306;5.634;2022-10-16T00:28:21;100779.56;;;18.25;63.85
60319;BME280;46163;52.306;5.634;2022-10-16T00:30:47;100777.91;;;18.24;63.84
60319;BME280;46163;52.306;5.634;2022-10-16T00:33:12;100795.38;;;18.21;63.66
60319;BME280;46163;52.306;5.634;2022-10-16T00:35:38;100775.97;;;18.19;63.63
60319;BME280;46163;52.306;5.634;2022-10-16T00:38:03;100779.22;;;18.21;63.82
60319;BME280;46163;52.306;5.634;2022-10-16T00:40:29;100774.09;;;18.20;63.74
60319;BME280;46163;52.306;5.634;2022-10-16T00:42:54;100782.19;;;18.20;63.61
60319;BME280;46163;52.306;5.634;2022-10-16T00:45:20;100761.13;;;18.17;63.83
60319;BME280;46163;52.306;5.634;2022-10-16T00:47:47;100778.13;;;18.17;63.61
60319;BME280;46163;52.306;5.634;2022-10-16T00:50:30;100771.91;;;18.17;63.84
60319;BME280;46163;52.306;5.634;2022-10-16T00:52:58;100753.75;;;18.07;63.55
60319;BME280;46163;52.306;5.634;2022-10-16T00:55:25;100770.03;;;18.17;63.69
60319;BME280;46163;52.306;5.634;2022-10-16T00:57:52;100770.28;;;18.16;63.78
60319;BME280;46163;52.306;5.634;2022-10-16T01:00:21;100764.91;;;18.16;63.55
60319;BME280;46163;52.306;5.634;2022-10-16T01:02:56;100767.59;;;18.16;63.54
60319;BME280;46163;52.306;5.634;2022-10-16T01:05:24;100773.22;;;18.14;63.73
60319;BME280;46163;52.306;5.634;2022-10-16T01:07:56;100757.06;;;18.14;63.57
60319;BME280;46163;52.306;5.634;2022-10-16T01:10:34;100760.00;;;18.13;63.61
60319;BME280;46163;52.306;5.634;2022-10-16T01:13:07;100751.13;;;18.12;63.49
60319;BME280;46163;52.306;5.634;2022-10-16T01:15:37;100763.75;;;18.12;63.76
60319;BME280;46163;52.306;5.634;2022-10-16T01:18:11;100769.97;;;18.12;63.70
60319;BME280;46163;52.306;5.634;2022-10-16T01:23:29;100782.06;;;18.10;63.41
60319;BME280;46163;52.306;5.634;2022-10-16T01:31:25;100776.94;;;18.08;63.66
60319;BME280;46163;52.306;5.634;2022-10-16T01:34:00;100769.09;;;18.06;63.55
60319;BME280;46163;52.306;5.634;2022-10-16T01:36:35;100775.06;;;18.08;63.40
60319;BME280;46163;52.306;5.634;2022-10-16T01:39:02;100771.78;;;18.06;63.63
60319;BME280;46163;52.306;5.634;2022-10-16T01:41:47;100777.16;;;18.06;63.56
60319;BME280;46163;52.306;5.634;2022-10-16T01:44:28;100763.69;;;18.06;63.35
60319;BME280;46163;52.306;5.634;2022-10-16T01:46:56;100769.09;;;18.06;63.46
60319;BME280;46163;52.306;5.634;2022-10-16T01:49:25;100759.38;;;18.05;63.42
60319;BME280;46163;52.306;5.634;2022-10-16T01:51:55;100753.13;;;18.00;63.42
60319;BME280;46163;52.306;5.634;2022-10-16T01:54:23;100766.66;;;18.05;63.43
60319;BME280;46163;52.306;5.634;2022-10-16T01:56:51;100763.94;;;18.05;63.55
60319;BME280;46163;52.306;5.634;2022-10-16T01:59:19;100759.06;;;18.02;63.18
60319;BME280;46163;52.306;5.634;2022-10-16T02:01:50;100773.91;;;18.04;63.40
60319;BME280;46163;52.306;5.634;2022-10-16T02:04:24;100764.22;;;18.03;63.44
60319;BME280;46163;52.306;5.634;2022-10-16T02:06:53;100775.25;;;18.02;63.44
60319;BME280;46163;52.306;5.634;2022-10-16T02:09:18;100780.88;;;18.00;63.41
60319;BME280;46163;52.306;5.634;2022-10-16T02:11:45;100762.59;;;18.02;63.39
60319;BME280;46163;52.306;5.634;2022-10-16T02:14:11;100745.34;;;18.03;63.45
60319;BME280;46163;52.306;5.634;2022-10-16T02:16:39;100738.59;;;18.01;63.32
60319;BME280;46163;52.306;5.634;2022-10-16T02:19:06;100734.03;;;18.01;63.22
60319;BME280;46163;52.306;5.634;2022-10-16T02:29:50;100765.78;;;17.99;63.11
60319;BME280;46163;52.306;5.634;2022-10-16T02:32:21;100774.59;;;17.95;63.25
60319;BME280;46163;52.306;5.634;2022-10-16T02:34:50;100778.09;;;17.95;63.20
60319;BME280;46163;52.306;5.634;2022-10-16T02:37:17;100780.31;;;17.98;63.27
60319;BME280;46163;52.306;5.634;2022-10-16T02:39:47;100794.81;;;17.97;63.23
60319;BME280;46163;52.306;5.634;2022-10-16T02:42:14;100788.41;;;17.98;63.29
60319;BME280;46163;52.306;5.634;2022-10-16T02:44:40;100779.47;;;17.98;63.08
60319;BME280;46163;52.306;5.634;2022-10-16T02:47:05;100798.31;;;17.98;63.23
60319;BME280;46163;52.306;5.634;2022-10-16T02:49:30;100800.22;;;17.97;63.09
60319;BME280;46163;52.306;5.634;2022-10-16T02:51:56;100801.28;;;17.96;63.14
60319;BME280;46163;52.306;5.634;2022-10-16T02:54:24;100797.78;;;17.96;63.03
60319;BME280;46163;52.306;5.634;2022-10-16T02:56:49;100802.34;;;17.95;63.01
60319;BME280;46163;52.306;5.634;2022-10-16T02:59:15;100816.63;;;17.96;63.15
60319;BME280;46163;52.306;5.634;2022-10-16T03:01:41;100804.22;;;17.95;63.15
60319;BME280;46163;52.306;5.634;2022-10-16T03:04:07;100809.59;;;17.95;63.01
60319;BME280;46163;52.306;5.634;2022-10-16T03:06:32;100811.50;;;17.94;63.02
60319;BME280;46163;52.306;5.634;2022-10-16T03:08:58;100812.56;;;17.93;63.16
60319;BME280;46163;52.306;5.634;2022-10-16T03:11:24;100813.63;;;17.92;63.19
60319;BME280;46163;52.306;5.634;2022-10-16T03:13:52;100816.31;;;17.92;63.03
60319;BME280;46163;52.306;5.634;2022-10-16T03:16:18;100810.94;;;17.92;62.95
60319;BME280;46163;52.306;5.634;2022-10-16T03:18:43;100810.38;;;17.90;63.19
60319;BME280;46163;52.306;5.634;2022-10-16T03:21:12;100800.41;;;17.91;62.99
60319;BME280;46163;52.306;5.634;2022-10-16T03:23:38;100800.09;;;17.87;63.10
60319;BME280;46163;52.306;5.634;2022-10-16T03:26:04;100799.59;;;17.90;62.99
60319;BME280;46163;52.306;5.634;2022-10-16T03:28:29;100801.72;;;17.88;62.97
60319;BME280;46163;52.306;5.634;2022-10-16T03:30:55;100807.91;;;17.89;62.99
60319;BME280;46163;52.306;5.634;2022-10-16T03:33:21;100805.22;;;17.89;63.06
60319;BME280;46163;52.306;5.634;2022-10-16T03:35:54;100801.72;;;17.88;63.04
60319;BME280;46163;52.306;5.634;2022-10-16T03:38:20;100803.84;;;17.86;63.04
60319;BME280;46163;52.306;5.634;2022-10-16T03:40:46;100808.16;;;17.87;63.22
60319;BME280;46163;52.306;5.634;2022-10-16T03:43:12;100809.22;;;17.86;62.98
60319;BME280;46163;52.306;5.634;2022-10-16T03:45:37;100810.03;;;17.87;62.91
60319;BME280;46163;52.306;5.634;2022-10-16T03:48:03;100821.88;;;17.86;62.92
60319;BME280;46163;52.306;5.634;2022-10-16T03:50:29;100815.69;;;17.85;62.99
60319;BME280;46163;52.306;5.634;2022-10-16T03:52:54;100823.75;;;17.85;62.96
60319;BME280;46163;52.306;5.634;2022-10-16T03:55:20;100829.13;;;17.85;62.91
60319;BME280;46163;52.306;5.634;2022-10-16T03:57:45;100833.72;;;17.85;63.09
60319;BME280;46163;52.306;5.634;2022-10-16T04:00:11;100819.94;;;17.81;63.00
60319;BME280;46163;52.306;5.634;2022-10-16T04:02:37;100830.75;;;17.86;62.84
60319;BME280;46163;52.306;5.634;2022-10-16T04:05:02;100825.38;;;17.86;62.81
60319;BME280;46163;52.306;5.634;2022-10-16T04:07:28;100834.28;;;17.87;62.93
60319;BME280;46163;52.306;5.634;2022-10-16T04:09:54;100825.94;;;17.88;62.96
60319;BME280;46163;52.306;5.634;2022-10-16T04:12:20;100834.59;;;17.90;62.77
60319;BME280;46163;52.306;5.634;2022-10-16T04:14:45;100844.31;;;17.91;62.93
60319;BME280;46163;52.306;5.634;2022-10-16T04:17:11;100830.50;;;17.88;62.92
60319;BME280;46163;52.306;5.634;2022-10-16T04:19:37;100845.59;;;17.89;62.94
60319;BME280;46163;52.306;5.634;2022-10-16T04:22:02;100848.63;;;17.92;62.95
60319;BME280;46163;52.306;5.634;2022-10-16T04:24:28;100849.69;;;17.91;62.96
60319;BME280;46163;52.306;5.634;2022-10-16T04:26:53;100846.19;;;17.91;62.86
60319;BME280;46163;52.306;5.634;2022-10-16T04:29:20;100849.44;;;17.93;62.83
60319;BME280;46163;52.306;5.634;2022-10-16T04:31:46;100854.56;;;17.94;62.77
60319;BME280;46163;52.306;5.634;2022-10-16T04:34:12;100855.94;;;17.97;62.84
60319;BME280;46163;52.306;5.634;2022-10-16T04:36:37;100868.13;;;17.99;62.93
60319;BME280;46163;52.306;5.634;2022-10-16T04:39:03;100864.34;;;18.00;62.73
60319;BME280;46163;52.306;5.634;2022-10-16T04:41:28;100870.28;;;18.02;62.73
60319;BME280;46163;52.306;5.634;2022-10-16T04:43:54;100874.34;;;18.05;62.65
60319;BME280;46163;52.306;5.634;2022-10-16T04:46:19;100883.75;;;18.02;62.69
60319;BME280;46163;52.306;5.634;2022-10-16T04:48:46;100887.66;;;18.12;62.43
60319;BME280;46163;52.306;5.634;2022-10-16T04:51:12;100891.72;;;18.14;62.43
60319;BME280;46163;52.306;5.634;2022-10-16T04:53:38;100877.44;;;18.14;62.24
60319;BME280;46163;52.306;5.634;2022-10-16T04:56:04;100894.75;;;18.18;62.34
60319;BME280;46163;52.306;5.634;2022-10-16T04:58:29;100896.13;;;18.20;62.04
60319;BME280;46163;52.306;5.634;2022-10-16T05:00:55;100898.00;;;18.20;62.27
60319;BME280;46163;52.306;5.634;2022-10-16T05:03:21;100903.69;;;18.23;61.92
60319;BME280;46163;52.306;5.634;2022-10-16T05:05:46;100903.47;;;18.25;62.11
60319;BME280;46163;52.306;5.634;2022-10-16T05:08:13;100902.66;;;18.24;62.00
60319;BME280;46163;52.306;5.634;2022-10-16T05:10:40;100909.66;;;18.25;61.97
60319;BME280;46163;52.306;5.634;2022-10-16T05:13:06;100910.22;;;18.27;61.78
60319;BME280;46163;52.306;5.634;2022-10-16T05:15:32;100915.34;;;18.29;61.79
60319;BME280;46163;52.306;5.634;2022-10-16T05:17:57;100912.41;;;18.30;61.60
60319;BME280;46163;52.306;5.634;2022-10-16T05:20:23;100911.34;;;18.31;61.86
60319;BME280;46163;52.306;5.634;2022-10-16T05:22:48;100915.66;;;18.32;61.52
60319;BME280;46163;52.306;5.634;2022-10-16T05:25:14;100921.84;;;18.33;61.51
60319;BME280;46163;52.306;5.634;2022-10-16T05:27:40;100930.53;;;18.35;61.34
60319;BME280;46163;52.306;5.634;2022-10-16T05:30:06;100936.72;;;18.35;61.30
60319;BME280;46163;52.306;5.634;2022-10-16T05:32:32;100938.63;;;18.35;61.25
60319;BME280;46163;52.306;5.634;2022-10-16T05:34:58;100937.81;;;18.34;61.50
60319;BME280;46163;52.306;5.634;2022-10-16T05:37:25;100937.00;;;18.34;61.28
60319;BME280;46163;52.306;5.634;2022-10-16T05:39:52;100942.94;;;18.36;61.49
60319;BME280;46163;52.306;5.634;2022-10-16T05:42:18;100954.53;;;18.36;61.30
60319;BME280;46163;52.306;5.634;2022-10-16T05:44:44;100953.72;;;18.36;61.39
60319;BME280;46163;52.306;5.634;2022-10-16T05:47:09;100945.88;;;18.34;61.51
60319;BME280;46163;52.306;5.634;2022-10-16T05:49:36;100959.56;;;18.33;61.43
60319;BME280;46163;52.306;5.634;2022-10-16T05:52:01;100966.84;;;18.32;61.52
60319;BME280;46163;52.306;5.634;2022-10-16T05:54:27;100963.84;;;18.29;61.54
60319;BME280;46163;52.306;5.634;2022-10-16T05:56:53;100961.16;;;18.29;61.53
60319;BME280;46163;52.306;5.634;2022-10-16T05:59:18;100976.81;;;18.32;61.64
60319;BME280;46163;52.306;5.634;2022-10-16T06:01:44;100984.91;;;18.32;61.65
60319;BME280;46163;52.306;5.634;2022-10-16T06:04:09;100995.66;;;18.32;61.59
60319;BME280;46163;52.306;5.634;2022-10-16T06:06:35;100990.28;;;18.32;61.34
60319;BME280;46163;52.306;5.634;2022-10-16T06:09:02;100991.69;;;18.34;61.69
60319;BME280;46163;52.306;5.634;2022-10-16T06:11:32;101001.41;;;18.35;61.42
60319;BME280;46163;52.306;5.634;2022-10-16T06:14:00;101009.22;;;18.37;61.59
60319;BME280;46163;52.306;5.634;2022-10-16T06:16:34;101010.84;;;18.38;61.35
60319;BME280;46163;52.306;5.634;2022-10-16T06:19:00;101017.88;;;18.39;61.43
60319;BME280;46163;52.306;5.634;2022-10-16T06:21:27;101015.19;;;18.39;61.34
60319;BME280;46163;52.306;5.634;2022-10-16T06:23:55;101023.81;;;18.41;61.45
60319;BME280;46163;52.306;5.634;2022-10-16T06:26:24;101028.19;;;18.42;61.23
60319;BME280;46163;52.306;5.634;2022-10-16T06:28:50;101025.69;;;18.41;61.30
60319;BME280;46163;52.306;5.634;2022-10-16T06:31:16;101027.91;;;18.44;61.15
60319;BME280;46163;52.306;5.634;2022-10-16T06:33:44;101031.44;;;18.44;61.12
60319;BME280;46163;52.306;5.634;2022-10-16T06:36:15;101045.72;;;18.45;61.24
60319;BME280;46163;52.306;5.634;2022-10-16T06:38:42;101048.41;;;18.45;61.12
60319;BME280;46163;52.306;5.634;2022-10-16T06:41:11;101035.66;;;18.40;61.11
60319;BME280;46163;52.306;5.634;2022-10-16T06:43:37;101059.19;;;18.45;61.08
60319;BME280;46163;52.306;5.634;2022-10-16T06:46:05;101068.09;;;18.45;61.39
60319;BME280;46163;52.306;5.634;2022-10-16T06:48:31;101069.16;;;18.44;61.12
60319;BME280;46163;52.306;5.634;2022-10-16T06:53:36;101048.41;;;18.45;61.18
60319;BME280;46163;52.306;5.634;2022-10-16T06:56:20;101051.09;;;18.45;61.31
60319;BME280;46163;52.306;5.634;2022-10-16T06:58:51;101050.84;;;18.46;61.09
60319;BME280;46163;52.306;5.634;2022-10-16T07:01:19;101057.06;;;18.47;61.47
60319;BME280;46163;52.306;5.634;2022-10-16T07:03:45;101064.06;;;18.48;61.23
60319;BME280;46163;52.306;5.634;2022-10-16T07:06:14;101063.81;;;18.49;61.53
60319;BME280;46163;52.306;5.634;2022-10-16T07:08:42;101073.53;;;18.50;61.38
60319;BME280;46163;52.306;5.634;2022-10-16T07:11:13;101071.34;;;18.47;61.55
60319;BME280;46163;52.306;5.634;2022-10-16T07:13:41;101060.06;;;18.50;61.45
60319;BME280;46163;52.306;5.634;2022-10-16T07:16:17;101075.19;;;18.51;61.52
60319;BME280;46163;52.306;5.634;2022-10-16T07:18:44;101073.53;;;18.50;61.74
60319;BME280;46163;52.306;5.634;2022-10-16T07:21:13;101081.41;;;18.52;61.51
60319;BME280;46163;52.306;5.634;2022-10-16T07:23:39;101085.72;;;18.53;61.68
60319;BME280;46163;52.306;5.634;2022-10-16T07:26:05;101100.00;;;18.53;61.53
60319;BME280;46163;52.306;5.634;2022-10-16T07:28:31;101091.94;;;18.53;61.81
60319;BME280;46163;52.306;5.634;2022-10-16T07:31:09;101107.59;;;18.56;61.77
60319;BME280;46163;52.306;5.634;2022-10-16T07:33:36;101112.72;;;18.58;61.69
60319;BME280;46163;52.306;5.634;2022-10-16T07:36:02;101108.66;;;18.55;61.77
60319;BME280;46163;52.306;5.634;2022-10-16T07:38:28;101128.91;;;18.58;61.70
60319;BME280;46163;52.306;5.634;2022-10-16T07:41:05;101120.59;;;18.59;61.59
60319;BME280;46163;52.306;5.634;2022-10-16T07:43:31;101124.09;;;18.60;61.62
60319;BME280;46163;52.306;5.634;2022-10-16T07:45:57;101117.81;;;18.54;61.44
60319;BME280;46163;52.306;5.634;2022-10-16T07:48:24;101135.44;;;18.62;61.83
60319;BME280;46163;52.306;5.634;2022-10-16T07:50:52;101133.81;;;18.61;61.77
60319;BME280;46163;52.306;5.634;2022-10-16T07:53:18;101134.63;;;18.61;61.72
60319;BME280;46163;52.306;5.634;2022-10-16T07:55:44;101143.78;;;18.60;61.72
60319;BME280;46163;52.306;5.634;2022-10-16T07:58:09;101145.97;;;18.63;61.94
60319;BME280;46163;52.306;5.634;2022-10-16T08:00:36;101143.84;;;18.49;62.04
60319;BME280;46163;52.306;5.634;2022-10-16T08:03:03;101143.13;;;18.53;62.28
60319;BME280;46163;52.306;5.634;2022-10-16T08:05:31;101154.88;;;18.64;62.24
60319;BME280;46163;52.306;5.634;2022-10-16T08:07:59;101164.84;;;18.63;62.18
60319;BME280;46163;52.306;5.634;2022-10-16T08:10:26;101181.03;;;18.63;62.13
60319;BME280;46163;52.306;5.634;2022-10-16T08:12:52;101171.88;;;18.64;61.94
60319;BME280;46163;52.306;5.634;2022-10-16T08:15:19;101170.03;;;18.65;61.93
60319;BME280;46163;52.306;5.634;2022-10-16T08:17:45;101153.09;;;18.53;61.99
60319;BME280;46163;52.306;5.634;2022-10-16T08:20:18;101190.75;;;18.64;61.95
60319;BME280;46163;52.306;5.634;2022-10-16T08:22:44;101195.09;;;18.66;62.05
60319;BME280;46163;52.306;5.634;2022-10-16T08:25:10;101187.84;;;18.66;61.98
60319;BME280;46163;52.306;5.634;2022-10-16T08:27:36;101185.94;;;18.67;62.05
60319;BME280;46163;52.306;5.634;2022-10-16T08:30:02;101192.16;;;18.67;61.87
60319;BME280;46163;52.306;5.634;2022-10-16T08:32:28;101195.66;;;18.68;61.67
60319;BME280;46163;52.306;5.634;2022-10-16T08:34:54;101206.44;;;18.68;61.74
60319;BME280;46163;52.306;5.634;2022-10-16T08:37:19;101209.16;;;18.68;61.77
60319;BME280;46163;52.306;5.634;2022-10-16T08:39:45;101205.41;;;18.69;61.58
60319;BME280;46163;52.306;5.634;2022-10-16T08:42:22;101210.00;;;18.68;61.62
60319;BME280;46163;52.306;5.634;2022-10-16T08:45:41;101216.19;;;18.69;61.66
60319;BME280;46163;52.306;5.634;2022-10-16T08:48:17;101217.22;;;18.68;61.87
60319;BME280;46163;52.306;5.634;2022-10-16T08:50:43;101223.69;;;18.67;61.65
60319;BME280;46163;52.306;5.634;2022-10-16T08:53:24;101231.56;;;18.68;61.81
60319;BME280;46163;52.306;5.634;2022-10-16T08:55:53;101236.94;;;18.68;61.86
60319;BME280;46163;52.306;5.634;2022-10-16T08:58:22;101224.16;;;18.63;61.93
60319;BME280;46163;52.306;5.634;2022-10-16T09:00:56;101233.19;;;18.69;61.85
60319;BME280;46163;52.306;5.634;2022-10-16T09:06:29;101244.53;;;18.71;61.90
60319;BME280;46163;52.306;5.634;2022-10-16T09:16:46;101251.81;;;18.71;61.74
60319;BME280;46163;52.306;5.634;2022-10-16T09:19:31;101272.41;;;18.77;61.79
60319;BME280;46163;52.306;5.634;2022-10-16T09:22:00;101274.25;;;18.76;61.82
60319;BME280;46163;52.306;5.634;2022-10-16T09:24:27;101272.41;;;18.77;61.62
60319;BME280;46163;52.306;5.634;2022-10-16T09:26:53;101279.44;;;18.78;61.68
60319;BME280;46163;52.306;5.634;2022-10-16T09:29:20;101291.84;;;18.79;61.67
60319;BME280;46163;52.306;5.634;2022-10-16T09:31:47;101297.25;;;18.79;61.67
60319;BME280;46163;52.306;5.634;2022-10-16T09:34:30;101297.25;;;18.79;61.51
60319;BME280;46163;52.306;5.634;2022-10-16T09:36:58;101297.81;;;18.81;61.53
60319;BME280;46163;52.306;5.634;2022-10-16T09:39:24;101301.88;;;18.83;61.47
60319;BME280;46163;52.306;5.634;2022-10-16T09:41:51;101301.63;;;18.85;61.27
60319;BME280;46163;52.306;5.634;2022-10-16T09:44:23;101305.75;;;18.87;61.32
60319;BME280;46163;52.306;5.634;2022-10-16T09:47:04;101310.66;;;18.90;61.19
60319;BME280;46163;52.306;5.634;2022-10-16T09:49:30;101310.16;;;18.93;61.09
60319;BME280;46163;52.306;5.634;2022-10-16T09:52:22;101311.00;;;18.94;61.20
60319;BME280;46163;52.306;5.634;2022-10-16T09:54:54;101315.06;;;18.97;60.96
60319;BME280;46163;52.306;5.634;2022-10-16T09:57:20;101303.72;;;18.95;60.97
60319;BME280;46163;52.306;5.634;2022-10-16T09:59:48;101305.41;;;19.01;61.00
60319;BME280;46163;52.306;5.634;2022-10-16T10:02:15;101297.56;;;18.99;61.00
60319;BME280;46163;52.306;5.634;2022-10-16T10:04:50;101322.25;;;19.08;60.89
60319;BME280;46163;52.306;5.634;2022-10-16T10:07:18;101314.41;;;19.06;60.96
60319;BME280;46163;52.306;5.634;2022-10-16T10:09:52;101320.38;;;19.08;60.99
60319;BME280;46163;52.306;5.634;2022-10-16T10:14:48;101331.00;;;19.15;60.95
60319;BME280;46163;52.306;5.634;2022-10-16T10:17:25;101329.22;;;19.20;60.75
60319;BME280;46163;52.306;5.634;2022-10-16T10:19:57;101333.06;;;19.25;60.71
60319;BME280;46163;52.306;5.634;2022-10-16T10:30:53;101341.38;;;19.40;60.54
60319;BME280;46163;52.306;5.634;2022-10-16T10:33:52;101348.72;;;19.44;60.56
60319;BME280;46163;52.306;5.634;2022-10-16T10:36:36;101350.69;;;19.49;60.59
60319;BME280;46163;52.306;5.634;2022-10-16T10:42:01;101366.97;;;19.54;60.52
60319;BME280;46163;52.306;5.634;2022-10-16T10:55:40;101371.00;;;19.68;60.21
60319;BME280;46163;52.306;5.634;2022-10-16T11:01:04;101364.53;;;19.69;60.40
60319;BME280;46163;52.306;5.634;2022-10-16T11:06:11;101375.41;;;19.74;60.21
60319;BME280;46163;52.306;5.634;2022-10-16T11:08:42;101371.91;;;19.74;60.26
60319;BME280;46163;52.306;5.634;2022-10-16T11:11:32;101376.22;;;19.75;60.20
60319;BME280;46163;52.306;5.634;2022-10-16T11:19:12;101384.97;;;19.82;60.26
60319;BME280;46163;52.306;5.634;2022-10-16T11:21:47;101393.88;;;19.83;60.29
60319;BME280;46163;52.306;5.634;2022-10-16T11:24:23;101379.31;;;19.84;60.01
60319;BME280;46163;52.306;5.634;2022-10-16T11:26:55;101386.09;;;19.86;60.05
60319;BME280;46163;52.306;5.634;2022-10-16T11:29:26;101387.72;;;19.87;59.95
60319;BME280;46163;52.306;5.634;2022-10-16T11:31:58;101397.47;;;19.88;60.07
60319;BME280;46163;52.306;5.634;2022-10-16T11:34:33;101394.53;;;19.90;60.40
60319;BME280;46163;52.306;5.634;2022-10-16T11:39:32;101398.53;;;19.87;60.03
60319;BME280;46163;52.306;5.634;2022-10-16T11:47:43;101400.41;;;19.87;59.90
60319;BME280;46163;52.306;5.634;2022-10-16T11:50:37;101405.81;;;19.87;60.03
60319;BME280;46163;52.306;5.634;2022-10-16T11:53:32;101409.03;;;19.84;60.02
60319;BME280;46163;52.306;5.634;2022-10-16T11:56:04;101408.47;;;19.82;59.95
60319;BME280;46163;52.306;5.634;2022-10-16T11:58:33;101412.47;;;19.79;59.85
60319;BME280;46163;52.306;5.634;2022-10-16T12:01:22;101414.34;;;19.79;60.07
60319;BME280;46163;52.306;5.634;2022-10-16T12:08:50;101416.56;;;19.82;59.83
60319;BME280;46163;52.306;5.634;2022-10-16T12:11:31;101419.25;;;19.82;59.88
60319;BME280;46163;52.306;5.634;2022-10-16T12:16:51;101420.91;;;19.83;59.86
60319;BME280;46163;52.306;5.634;2022-10-16T12:19:17;101426.31;;;19.83;59.99
60319;BME280;46163;52.306;5.634;2022-10-16T12:21:44;101427.94;;;19.84;59.86
60319;BME280;46163;52.306;5.634;2022-10-16T12:24:35;101429.00;;;19.83;59.87
60319;BME280;46163;52.306;5.634;2022-10-16T12:27:04;101429.47;;;19.80;59.81
60319;BME280;46163;52.306;5.634;2022-10-16T12:29:44;101441.09;;;19.80;59.87
60319;BME280;46163;52.306;5.634;2022-10-16T12:34:54;101432.19;;;19.80;59.90
60319;BME280;46163;52.306;5.634;2022-10-16T12:37:24;101437.56;;;19.80;60.13
60319;BME280;46163;52.306;5.634;2022-10-16T12:39:52;101433.00;;;19.80;60.03
60319;BME280;46163;52.306;5.634;2022-10-16T12:44:53;101437.00;;;19.77;60.12
60319;BME280;46163;52.306;5.634;2022-10-16T12:49:58;101446.75;;;19.79;60.13
60319;BME280;46163;52.306;5.634;2022-10-16T12:54:59;101449.97;;;19.75;60.22
60319;BME280;46163;52.306;5.634;2022-10-16T12:57:50;101448.06;;;19.76;60.25
60319;BME280;46163;52.306;5.634;2022-10-16T13:00:32;101449.69;;;19.77;60.24
60319;BME280;46163;52.306;5.634;2022-10-16T13:08:35;101457.81;;;19.77;60.25
60319;BME280;46163;52.306;5.634;2022-10-16T13:22:00;101461.81;;;19.74;60.37
60319;BME280;46163;52.306;5.634;2022-10-16T13:29:32;101464.78;;;19.73;60.18
60319;BME280;46163;52.306;5.634;2022-10-16T13:32:00;101463.97;;;19.72;60.27
60319;BME280;46163;52.306;5.634;2022-10-16T13:34:27;101470.19;;;19.73;60.33
60319;BME280;46163;52.306;5.634;2022-10-16T13:36:53;101468.84;;;19.75;60.31
60319;BME280;46163;52.306;5.634;2022-10-16T13:39:29;101469.69;;;19.76;60.08
60319;BME280;46163;52.306;5.634;2022-10-16T13:42:18;101484.09;;;19.82;60.34
60319;BME280;46163;52.306;5.634;2022-10-16T13:44:52;101477.38;;;19.84;60.22
60319;BME280;46163;52.306;5.634;2022-10-16T13:47:26;101485.53;;;19.89;60.22
60319;BME280;46163;52.306;5.634;2022-10-16T13:50:09;101486.13;;;19.91;60.12
60319;BME280;46163;52.306;5.634;2022-10-16T13:52:36;101482.34;;;19.92;60.13
60319;BME280;46163;52.306;5.634;2022-10-16T13:55:04;101491.28;;;19.93;60.05
60319;BME280;46163;52.306;5.634;2022-10-16T13:57:30;101482.91;;;19.94;60.02
60319;BME280;46163;52.306;5.634;2022-10-16T13:59:55;101485.63;;;19.94;59.75
60319;BME280;46163;52.306;5.634;2022-10-16T14:02:38;101500.75;;;19.95;60.00
60319;BME280;46163;52.306;5.634;2022-10-16T14:05:08;101499.94;;;19.95;60.09
60319;BME280;46163;52.306;5.634;2022-10-16T14:07:35;101501.81;;;19.94;59.96
60319;BME280;46163;52.306;5.634;2022-10-16T14:10:05;101501.31;;;19.97;60.08
60319;BME280;46163;52.306;5.634;2022-10-16T14:12:31;101501.91;;;19.99;59.92
60319;BME280;46163;52.306;5.634;2022-10-16T14:14:58;101495.19;;;20.02;59.91
60319;BME280;46163;52.306;5.634;2022-10-16T14:17:28;101495.75;;;20.04;59.82
60319;BME280;46163;52.306;5.634;2022-10-16T14:19:57;101497.13;;;20.07;59.82
60319;BME280;46163;52.306;5.634;2022-10-16T14:22:28;101500.69;;;20.07;59.64
60319;BME280;46163;52.306;5.634;2022-10-16T14:24:55;101509.59;;;20.08;59.39
60319;BME280;46163;52.306;5.634;2022-10-16T14:30:22;101501.72;;;20.06;59.31
60319;BME280;46163;52.306;5.634;2022-10-16T14:33:38;101493.06;;;20.04;59.26
60319;BME280;46163;52.306;5.634;2022-10-16T14:35:45;101494.69;;;20.05;59.20
60319;BME280;46163;52.306;5.634;2022-10-16T14:38:20;101494.69;;;20.05;59.25
60319;BME280;46163;52.306;5.634;2022-10-16T14:40:48;101493.06;;;20.04;58.96
60319;BME280;46163;52.306;5.634;2022-10-16T14:43:22;101495.75;;;20.04;58.75
60319;BME280;46163;52.306;5.634;2022-10-16T14:45:53;101496.00;;;20.02;58.86
60319;BME280;46163;52.306;5.634;2022-10-16T14:48:19;101504.44;;;20.06;58.89
60319;BME280;46163;52.306;5.634;2022-10-16T14:50:46;101516.06;;;20.07;59.00
60319;BME280;46163;52.306;5.634;2022-10-16T14:53:12;101508.19;;;20.05;59.08
60319;BME280;46163;52.306;5.634;2022-10-16T14:55:38;101510.91;;;20.05;59.03
60319;BME280;46163;52.306;5.634;2022-10-16T14:58:05;101507.63;;;20.03;58.75